createdAt,value
2023-05-25T00:01:49.489Z,100.00
2023-05-25T00:04:19.590Z,100.00
2023-05-25T00:06:49.131Z,100.00
2023-05-25T00:09:17.175Z,100.00
2023-05-25T00:11:45.477Z,100.00
2023-05-25T00:14:13.469Z,100.00
2023-05-25T00:16:41.468Z,100.00
2023-05-25T00:19:10.750Z,100.00
2023-05-25T00:21:39.275Z,100.00
2023-05-25T00:24:09.080Z,100.00
2023-05-25T00:26:37.049Z,100.00
2023-05-25T00:29:05.052Z,100.00
2023-05-25T00:31:35.623Z,100.00
2023-05-25T00:34:03.782Z,100.00
2023-05-25T00:36:31.749Z,100.00
2023-05-25T00:38:59.706Z,100.00
2023-05-25T00:41:29.228Z,100.00
2023-05-25T00:43:57.158Z,100.00
2023-05-25T00:46:25.242Z,100.00
2023-05-25T00:48:53.835Z,100.00
2023-05-25T00:51:21.858Z,100.00
2023-05-25T00:53:49.809Z,100.00
2023-05-25T00:56:20.805Z,100.00
2023-05-25T00:58:51.805Z,100.00
2023-05-25T01:01:19.877Z,100.00
2023-05-25T01:03:53.800Z,100.00
2023-05-25T01:06:23.212Z,100.00
2023-05-25T01:08:53.215Z,100.00
2023-05-25T01:11:21.660Z,100.00
2023-05-25T01:13:51.250Z,100.00
2023-05-25T01:16:19.258Z,100.00
2023-05-25T01:18:48.178Z,100.00
2023-05-25T01:21:22.071Z,100.00
2023-05-25T01:23:53.708Z,100.00
2023-05-25T01:26:21.748Z,100.00
2023-05-25T01:28:51.507Z,100.00
2023-05-25T01:31:19.880Z,100.00
2023-05-25T01:33:47.927Z,100.00
2023-05-25T01:36:17.262Z,100.00
2023-05-25T01:38:45.208Z,100.00
2023-05-25T01:41:13.200Z,100.00
2023-05-25T01:43:41.216Z,100.00
2023-05-25T01:46:13.982Z,100.00
2023-05-25T01:48:45.600Z,100.00
2023-05-25T01:51:18.697Z,100.00
2023-05-25T01:53:50.364Z,100.00
2023-05-25T01:56:18.392Z,100.00
2023-05-25T01:58:46.814Z,100.00
2023-05-25T02:01:16.204Z,100.00
2023-05-25T02:03:44.913Z,100.00
2023-05-25T02:06:13.974Z,100.00
2023-05-25T02:08:43.999Z,100.00
2023-05-25T02:11:14.103Z,100.00
2023-05-25T02:13:42.089Z,100.00
2023-05-25T02:16:10.116Z,100.00
2023-05-25T02:18:38.076Z,100.00
2023-05-25T02:21:06.103Z,100.00
2023-05-25T02:23:34.151Z,100.00
2023-05-25T02:26:03.498Z,100.00
2023-05-25T02:28:31.478Z,100.00
2023-05-25T02:30:59.498Z,100.00
2023-05-25T02:33:27.529Z,100.00
2023-05-25T02:35:55.474Z,100.00
2023-05-25T02:38:23.455Z,100.00
2023-05-25T02:40:51.429Z,100.00
2023-05-25T02:43:20.800Z,100.00
2023-05-25T02:45:48.821Z,100.00
2023-05-25T02:48:16.775Z,100.00
2023-05-25T02:50:44.937Z,100.00
2023-05-25T02:53:12.982Z,100.00
2023-05-25T02:55:43.694Z,100.00
2023-05-25T02:58:11.934Z,100.00
2023-05-25T03:00:43.043Z,100.00
2023-05-25T03:03:11.311Z,100.00
2023-05-25T03:05:39.383Z,100.00
2023-05-25T03:08:07.498Z,100.00
2023-05-25T03:10:35.458Z,100.00
2023-05-25T03:13:03.414Z,100.00
2023-05-25T03:15:31.408Z,100.00
2023-05-25T03:18:01.579Z,100.00
2023-05-25T03:20:29.844Z,100.00
2023-05-25T03:22:57.884Z,100.00
2023-05-25T03:25:26.107Z,100.00
2023-05-25T03:27:54.275Z,100.00
2023-05-25T03:30:23.161Z,100.00
2023-05-25T03:32:51.207Z,100.00
2023-05-25T03:35:20.581Z,100.00
2023-05-25T03:37:48.560Z,100.00
2023-05-25T03:40:16.714Z,100.00
2023-05-25T03:42:44.701Z,100.00
2023-05-25T03:45:12.900Z,100.00
2023-05-25T03:47:41.205Z,100.00
2023-05-25T03:50:09.997Z,100.00
2023-05-25T03:52:39.326Z,100.00
2023-05-25T03:55:07.717Z,100.00
2023-05-25T03:57:35.771Z,100.00
2023-05-25T04:00:05.386Z,100.00
2023-05-25T04:02:34.832Z,100.00
2023-05-25T04:05:02.967Z,100.00
2023-05-25T04:07:31.265Z,100.00
2023-05-25T04:10:00.781Z,100.00
2023-05-25T04:12:28.877Z,100.00
2023-05-25T04:14:57.500Z,100.00
2023-05-25T04:17:25.517Z,100.00
2023-05-25T04:19:53.580Z,100.00
2023-05-25T04:22:21.581Z,100.00
2023-05-25T04:24:49.694Z,100.00
2023-05-25T04:27:20.363Z,93.03
2023-05-25T04:29:50.240Z,82.70
2023-05-25T04:32:18.933Z,79.06
2023-05-25T04:34:48.293Z,77.36
2023-05-25T04:37:17.305Z,75.64
2023-05-25T04:39:45.462Z,75.32
2023-05-25T04:42:13.467Z,76.79
2023-05-25T04:44:43.257Z,76.44
2023-05-25T04:47:12.295Z,78.46
2023-05-25T04:49:40.242Z,83.06
2023-05-25T04:52:08.220Z,87.23
2023-05-25T04:54:36.831Z,94.16
2023-05-25T04:57:05.161Z,97.39
2023-05-25T04:59:33.150Z,100.00
2023-05-25T05:02:02.510Z,100.00
2023-05-25T05:04:30.595Z,98.10
2023-05-25T05:06:59.875Z,92.82
2023-05-25T05:09:28.061Z,88.63
2023-05-25T05:11:56.103Z,89.43
2023-05-25T05:14:24.067Z,94.72
2023-05-25T05:16:52.160Z,97.95
2023-05-25T05:19:23.008Z,93.52
2023-05-25T05:21:51.364Z,95.22
2023-05-25T05:24:19.343Z,95.48
2023-05-25T05:26:57.399Z,92.24
2023-05-25T05:29:27.031Z,86.89
2023-05-25T05:31:55.621Z,80.55
2023-05-25T05:34:25.151Z,72.70
2023-05-25T05:36:57.921Z,67.91
2023-05-25T05:39:26.582Z,64.31
2023-05-25T05:41:54.662Z,66.16
2023-05-25T05:44:24.595Z,66.32
2023-05-25T05:47:00.112Z,69.01
2023-05-25T05:49:30.151Z,68.13
2023-05-25T05:51:58.256Z,68.73
2023-05-25T05:54:27.915Z,64.87
2023-05-25T05:56:56.137Z,64.33
2023-05-25T05:59:24.202Z,62.26
2023-05-25T06:01:52.190Z,65.03
2023-05-25T06:04:20.306Z,66.77
2023-05-25T06:06:49.664Z,63.58
2023-05-25T06:09:17.697Z,62.45
2023-05-25T06:11:45.758Z,60.04
2023-05-25T06:14:13.718Z,59.46
2023-05-25T06:16:43.772Z,57.16
2023-05-25T06:19:11.931Z,55.55
2023-05-25T06:21:39.918Z,52.42
2023-05-25T06:24:09.824Z,50.45
2023-05-25T06:26:37.856Z,49.43
2023-05-25T06:29:05.827Z,49.46
2023-05-25T06:31:33.790Z,49.45
2023-05-25T06:34:01.749Z,49.84
2023-05-25T06:36:29.768Z,50.69
2023-05-25T06:38:57.834Z,52.12
2023-05-25T06:41:27.929Z,52.32
2023-05-25T06:43:55.905Z,51.16
2023-05-25T06:46:23.929Z,48.02
2023-05-25T06:48:52.141Z,46.49
2023-05-25T06:51:20.215Z,46.66
2023-05-25T06:53:48.170Z,47.65
2023-05-25T06:56:16.226Z,46.27
2023-05-25T06:58:45.662Z,46.74
2023-05-25T07:01:13.682Z,48.37
2023-05-25T07:03:43.038Z,51.44
2023-05-25T07:06:12.273Z,53.60
2023-05-25T07:08:40.260Z,56.48
2023-05-25T07:11:10.655Z,55.60
2023-05-25T07:13:38.683Z,57.47
2023-05-25T07:16:08.281Z,56.40
2023-05-25T07:18:36.298Z,58.38
2023-05-25T07:21:04.577Z,59.30
2023-05-25T07:23:32.541Z,59.46
2023-05-25T07:26:00.513Z,60.13
2023-05-25T07:28:28.513Z,61.10
2023-05-25T07:30:56.500Z,60.71
2023-05-25T07:33:25.879Z,61.56
2023-05-25T07:35:53.893Z,60.09
2023-05-25T07:38:21.922Z,57.98
2023-05-25T07:40:50.829Z,60.96
2023-05-25T07:43:18.882Z,59.42
2023-05-25T07:45:47.013Z,55.99
2023-05-25T07:48:15.266Z,53.91
2023-05-25T07:50:44.721Z,56.39
2023-05-25T07:53:12.687Z,53.09
2023-05-25T07:55:41.033Z,48.96
2023-05-25T07:58:09.039Z,47.01
2023-05-25T08:00:37.050Z,44.97
2023-05-25T08:03:05.460Z,46.96
2023-05-25T08:05:33.549Z,46.89
2023-05-25T08:08:03.007Z,48.38
2023-05-25T08:10:32.568Z,50.08
2023-05-25T08:13:00.728Z,49.69
2023-05-25T08:15:28.676Z,48.92
2023-05-25T08:17:57.072Z,51.78
2023-05-25T08:20:26.062Z,49.38
2023-05-25T08:22:54.726Z,51.82
2023-05-25T08:25:24.291Z,52.95
2023-05-25T08:27:52.253Z,52.53
2023-05-25T08:30:20.374Z,51.38
2023-05-25T08:32:48.542Z,50.07
2023-05-25T08:35:17.510Z,50.25
2023-05-25T08:37:45.511Z,54.61
2023-05-25T08:40:15.972Z,51.75
2023-05-25T08:42:45.683Z,55.73
2023-05-25T08:45:26.471Z,53.01
2023-05-25T08:48:02.060Z,54.55
2023-05-25T08:50:30.224Z,53.35
2023-05-25T08:52:58.232Z,53.83
2023-05-25T08:55:28.413Z,53.57
2023-05-25T08:58:01.068Z,53.34
2023-05-25T09:00:30.338Z,57.06
2023-05-25T09:03:01.344Z,55.62
2023-05-25T09:05:29.444Z,53.29
2023-05-25T09:07:57.430Z,51.22
2023-05-25T09:10:26.492Z,51.40
2023-05-25T09:12:55.063Z,49.19
2023-05-25T09:15:24.638Z,48.43
2023-05-25T09:17:52.698Z,47.80
2023-05-25T09:20:20.781Z,50.07
2023-05-25T09:22:48.821Z,51.84
2023-05-25T09:25:20.247Z,50.38
2023-05-25T09:27:48.264Z,50.23
2023-05-25T09:30:16.409Z,50.21
2023-05-25T09:32:45.905Z,48.31
2023-05-25T09:35:14.879Z,48.63
2023-05-25T09:37:43.103Z,47.34
2023-05-25T09:40:11.909Z,41.71
2023-05-25T09:42:40.027Z,39.67
2023-05-25T09:45:08.584Z,42.33
2023-05-25T09:47:37.779Z,41.79
2023-05-25T09:50:08.438Z,38.38
2023-05-25T09:52:36.879Z,37.90
2023-05-25T09:55:05.371Z,40.36
2023-05-25T09:57:33.381Z,41.71
2023-05-25T10:00:01.356Z,41.51
2023-05-25T10:02:29.409Z,39.67
2023-05-25T10:04:57.698Z,40.85
2023-05-25T10:07:27.120Z,42.37
2023-05-25T10:09:55.046Z,42.98
2023-05-25T10:12:23.055Z,44.05
2023-05-25T10:14:51.357Z,45.60
2023-05-25T10:17:22.095Z,43.73
2023-05-25T10:19:52.587Z,45.41
2023-05-25T10:22:22.155Z,48.54
2023-05-25T10:24:55.920Z,48.17
2023-05-25T10:27:27.626Z,50.39
2023-05-25T10:29:57.259Z,54.27
2023-05-25T10:32:25.453Z,54.08
2023-05-25T10:34:53.912Z,53.29
2023-05-25T10:37:21.918Z,53.44
2023-05-25T10:39:49.961Z,52.09
2023-05-25T10:42:19.946Z,55.83
2023-05-25T10:44:48.021Z,52.79
2023-05-25T10:47:16.352Z,51.33
2023-05-25T10:49:54.655Z,53.44
2023-05-25T10:52:22.996Z,57.22
2023-05-25T10:54:50.999Z,56.83
2023-05-25T10:57:24.182Z,56.68
2023-05-25T10:59:52.263Z,56.13
2023-05-25T11:02:23.328Z,56.55
2023-05-25T11:04:51.625Z,58.28
2023-05-25T11:07:19.683Z,60.02
2023-05-25T11:09:58.555Z,61.62
2023-05-25T11:12:27.988Z,59.18
2023-05-25T11:15:16.512Z,60.97
2023-05-25T11:17:59.974Z,58.68
2023-05-25T11:20:29.068Z,54.93
2023-05-25T11:22:58.929Z,50.35
2023-05-25T11:25:44.888Z,44.90
2023-05-25T11:28:14.532Z,38.57
2023-05-25T11:30:43.274Z,40.21
2023-05-25T11:33:11.365Z,44.87
2023-05-25T11:35:39.423Z,44.01
2023-05-25T11:38:08.084Z,43.29
2023-05-25T11:40:39.307Z,43.10
2023-05-25T11:43:08.483Z,45.26
2023-05-25T11:45:39.335Z,44.99
2023-05-25T11:48:07.869Z,49.43
2023-05-25T11:50:35.961Z,50.37
2023-05-25T11:53:07.169Z,52.61
2023-05-25T11:55:35.371Z,53.55
2023-05-25T11:58:03.388Z,55.93
2023-05-25T12:00:31.681Z,56.31
2023-05-25T12:03:01.195Z,54.52
2023-05-25T12:05:38.758Z,55.74
2023-05-25T12:08:07.046Z,56.67
2023-05-25T12:10:35.027Z,59.06
2023-05-25T12:13:04.660Z,59.56
2023-05-25T12:15:32.700Z,60.45
2023-05-25T12:18:02.165Z,65.84
2023-05-25T12:20:30.268Z,59.50
2023-05-25T12:22:58.353Z,64.02
2023-05-25T12:25:27.331Z,68.49
2023-05-25T12:28:14.724Z,67.78
2023-05-25T12:30:42.749Z,70.23
2023-05-25T12:33:14.052Z,69.05
2023-05-25T12:35:48.327Z,65.41
2023-05-25T12:38:17.709Z,64.98
2023-05-25T12:40:45.988Z,66.52
2023-05-25T12:43:14.417Z,63.87
2023-05-25T12:45:42.872Z,61.39
2023-05-25T12:48:12.801Z,60.27
2023-05-25T12:50:41.191Z,58.56
2023-05-25T12:53:09.497Z,59.02
2023-05-25T12:55:38.296Z,53.91
2023-05-25T12:58:07.022Z,56.54
2023-05-25T13:00:35.956Z,53.47
2023-05-25T13:03:04.278Z,57.60
2023-05-25T13:05:35.289Z,61.49
2023-05-25T13:08:03.882Z,60.81
2023-05-25T13:10:32.816Z,64.03
2023-05-25T13:13:01.140Z,62.34
2023-05-25T13:15:29.334Z,63.25
2023-05-25T13:17:58.498Z,67.64
2023-05-25T13:20:27.200Z,70.53
2023-05-25T13:22:56.806Z,70.28
2023-05-25T13:25:27.483Z,70.67
2023-05-25T13:27:58.072Z,71.33
2023-05-25T13:30:26.665Z,71.81
2023-05-25T13:32:54.811Z,75.22
2023-05-25T13:35:37.638Z,75.02
2023-05-25T13:38:07.393Z,80.20
2023-05-25T13:40:35.448Z,80.06
2023-05-25T13:43:03.534Z,82.35
2023-05-25T13:45:31.571Z,90.72
2023-05-25T13:47:59.866Z,100.00
2023-05-25T13:50:27.928Z,100.00
2023-05-25T13:52:55.917Z,100.00
2023-05-25T13:55:25.305Z,100.00
2023-05-25T13:57:53.774Z,100.00
2023-05-25T14:00:22.200Z,100.00
2023-05-25T14:02:51.891Z,100.00
2023-05-25T14:05:20.210Z,100.00
2023-05-25T14:07:48.277Z,100.00
2023-05-25T14:10:16.273Z,100.00
2023-05-25T14:12:45.921Z,100.00
2023-05-25T14:15:13.945Z,100.00
2023-05-25T14:17:42.055Z,100.00
2023-05-25T14:20:11.778Z,100.00
2023-05-25T14:22:39.814Z,100.00
2023-05-25T14:25:08.729Z,100.00
2023-05-25T14:27:36.728Z,100.00
2023-05-25T14:30:07.801Z,100.00
2023-05-25T14:32:35.835Z,100.00
2023-05-25T14:35:03.992Z,100.00
2023-05-25T14:37:31.999Z,100.00
2023-05-25T14:40:00.759Z,100.00
2023-05-25T14:42:30.242Z,100.00
2023-05-25T14:44:58.528Z,100.00
2023-05-25T14:47:27.904Z,100.00
2023-05-25T14:49:56.024Z,100.00
2023-05-25T14:52:24.098Z,100.00
2023-05-25T14:54:52.069Z,100.00
2023-05-25T14:57:20.051Z,100.00
2023-05-25T14:59:48.138Z,100.00
2023-05-25T15:02:16.150Z,100.00
2023-05-25T15:04:47.704Z,100.00
2023-05-25T15:07:15.854Z,100.00
2023-05-25T15:09:45.358Z,100.00
2023-05-25T15:12:13.378Z,100.00
2023-05-25T15:14:42.424Z,100.00
2023-05-25T15:17:10.800Z,100.00
2023-05-25T15:19:38.822Z,100.00
2023-05-25T15:22:08.200Z,100.00
2023-05-25T15:24:36.201Z,100.00
2023-05-25T15:27:05.201Z,100.00
2023-05-25T15:29:33.267Z,100.00
2023-05-25T15:32:01.531Z,100.00
2023-05-25T15:34:29.584Z,100.00
2023-05-25T15:36:57.580Z,100.00
2023-05-25T15:39:26.944Z,100.00
2023-05-25T15:41:54.929Z,100.00
2023-05-25T15:44:22.939Z,100.00
2023-05-25T15:46:51.762Z,100.00
2023-05-25T15:49:20.367Z,100.00
2023-05-25T15:51:48.352Z,100.00
2023-05-25T15:54:16.537Z,100.00
2023-05-25T15:56:46.130Z,100.00
2023-05-25T15:59:14.088Z,100.00
2023-05-25T16:01:42.118Z,100.00
2023-05-25T16:04:10.234Z,100.00
2023-05-25T16:06:38.507Z,100.00
2023-05-25T16:09:06.746Z,100.00
2023-05-25T16:11:34.855Z,100.00
2023-05-25T16:14:04.166Z,100.00
2023-05-25T16:16:32.318Z,100.00
2023-05-25T16:19:00.484Z,100.00
2023-05-25T16:21:28.542Z,100.00
2023-05-25T16:23:56.547Z,100.00
2023-05-25T16:26:24.552Z,100.00
2023-05-25T16:28:52.572Z,100.00
2023-05-25T16:31:21.968Z,100.00
2023-05-25T16:33:50.024Z,100.00
2023-05-25T16:36:18.060Z,100.00
2023-05-25T16:38:46.061Z,100.00
2023-05-25T16:41:14.019Z,100.00
2023-05-25T16:43:42.065Z,100.00
2023-05-25T16:46:10.170Z,100.00
2023-05-25T16:48:39.518Z,100.00
2023-05-25T16:51:07.586Z,100.00
2023-05-25T16:53:35.583Z,100.00
2023-05-25T16:56:03.625Z,100.00
2023-05-25T16:58:31.841Z,100.00
2023-05-25T17:00:59.824Z,100.00
2023-05-25T17:03:27.979Z,100.00
2023-05-25T17:05:57.465Z,100.00
2023-05-25T17:08:25.442Z,100.00
2023-05-25T17:10:53.648Z,100.00
2023-05-25T17:13:21.793Z,100.00
2023-05-25T17:15:49.857Z,100.00
2023-05-25T17:18:18.101Z,100.00
2023-05-25T17:20:46.324Z,100.00
2023-05-25T17:23:16.858Z,100.00
2023-05-25T17:25:45.022Z,100.00
2023-05-25T17:28:13.246Z,100.00
2023-05-25T17:30:41.255Z,100.00
2023-05-25T17:33:09.364Z,100.00
2023-05-25T17:35:37.352Z,100.00
2023-05-25T17:38:05.369Z,100.00
2023-05-25T17:40:34.773Z,100.00
2023-05-25T17:43:02.823Z,100.00
2023-05-25T17:45:30.830Z,100.00
2023-05-25T17:47:58.951Z,100.00
2023-05-25T17:50:26.943Z,100.00
2023-05-25T17:52:54.863Z,100.00
2023-05-25T17:55:22.903Z,100.00
2023-05-25T17:57:52.283Z,100.00
2023-05-25T18:00:23.059Z,100.00
2023-05-25T18:02:52.072Z,100.00
2023-05-25T18:05:20.269Z,100.00
2023-05-25T18:07:48.273Z,100.00
2023-05-25T18:10:16.361Z,100.00
2023-05-25T18:12:46.194Z,100.00
2023-05-25T18:15:15.589Z,100.00
2023-05-25T18:17:43.703Z,100.00
2023-05-25T18:20:12.295Z,100.00
2023-05-25T18:22:41.332Z,100.00
2023-05-25T18:25:10.016Z,100.00
2023-05-25T18:27:38.014Z,100.00
2023-05-25T18:30:07.016Z,100.00
2023-05-25T18:32:36.486Z,100.00
2023-05-25T18:35:04.754Z,100.00
2023-05-25T18:37:35.543Z,100.00
2023-05-25T18:40:03.637Z,100.00
2023-05-25T18:42:31.657Z,100.00
2023-05-25T18:44:59.711Z,100.00
2023-05-25T18:47:27.859Z,100.00
2023-05-25T18:49:57.275Z,100.00
2023-05-25T18:52:25.270Z,100.00
2023-05-25T18:54:53.272Z,100.00
2023-05-25T18:57:21.268Z,100.00
2023-05-25T18:59:49.240Z,100.00
2023-05-25T19:02:17.259Z,100.00
2023-05-25T19:04:45.215Z,100.00
2023-05-25T19:07:14.528Z,100.00
2023-05-25T19:09:42.969Z,100.00
2023-05-25T19:12:11.004Z,100.00
2023-05-25T19:14:38.948Z,100.00
2023-05-25T19:17:06.931Z,100.00
2023-05-25T19:19:34.949Z,100.00
2023-05-25T19:22:02.915Z,100.00
2023-05-25T19:24:32.290Z,100.00
2023-05-25T19:27:00.284Z,100.00
2023-05-25T19:29:28.251Z,100.00
2023-05-25T19:31:56.444Z,100.00
2023-05-25T19:34:24.508Z,100.00
2023-05-25T19:37:00.102Z,100.00
2023-05-25T19:39:40.213Z,100.00
2023-05-25T19:42:08.395Z,100.00
2023-05-25T19:44:36.392Z,100.00
2023-05-25T19:47:04.371Z,100.00
2023-05-25T19:49:32.372Z,100.00
2023-05-25T19:52:00.434Z,100.00
2023-05-25T19:54:28.387Z,100.00
2023-05-25T19:56:57.759Z,100.00
2023-05-25T19:59:28.126Z,100.00
2023-05-25T20:01:56.795Z,100.00
2023-05-25T20:04:25.168Z,100.00
2023-05-25T20:06:53.767Z,100.00
2023-05-25T20:09:30.015Z,100.00
2023-05-25T20:11:59.788Z,100.00
2023-05-25T20:14:27.738Z,100.00
2023-05-25T20:16:56.060Z,100.00
2023-05-25T20:19:24.131Z,100.00
2023-05-25T20:21:52.108Z,100.00
2023-05-25T20:24:20.092Z,100.00
2023-05-25T20:26:48.057Z,100.00
2023-05-25T20:29:17.433Z,100.00
2023-05-25T20:31:45.409Z,100.00
2023-05-25T20:34:13.386Z,100.00
2023-05-25T20:36:41.316Z,100.00
2023-05-25T20:39:09.464Z,100.00
2023-05-25T20:41:37.426Z,100.00
2023-05-25T20:44:06.623Z,100.00
2023-05-25T20:46:36.503Z,100.00
2023-05-25T20:49:04.613Z,100.00
2023-05-25T20:51:32.727Z,100.00
2023-05-25T20:54:00.849Z,100.00
2023-05-25T20:56:28.832Z,100.00
2023-05-25T20:58:57.551Z,100.00
2023-05-25T21:01:25.624Z,100.00
2023-05-25T21:03:55.097Z,100.00
2023-05-25T21:06:23.349Z,100.00
2023-05-25T21:08:52.983Z,100.00
2023-05-25T21:11:21.044Z,100.00
2023-05-25T21:13:49.119Z,100.00
2023-05-25T21:16:17.147Z,100.00
2023-05-25T21:18:45.356Z,100.00
2023-05-25T21:21:15.900Z,100.00
2023-05-25T21:23:43.923Z,100.00
2023-05-25T21:26:11.899Z,100.00
2023-05-25T21:28:39.835Z,100.00
2023-05-25T21:31:07.873Z,100.00
2023-05-25T21:33:37.622Z,100.00
2023-05-25T21:36:05.692Z,100.00
2023-05-25T21:38:35.044Z,100.00
2023-05-25T21:41:03.018Z,100.00
2023-05-25T21:43:31.248Z,100.00
2023-05-25T21:45:59.188Z,100.00
2023-05-25T21:48:27.166Z,100.00
2023-05-25T21:50:55.092Z,100.00
2023-05-25T21:53:23.288Z,100.00
2023-05-25T21:55:53.050Z,100.00
2023-05-25T21:58:21.157Z,100.00
2023-05-25T22:00:49.214Z,100.00
2023-05-25T22:03:17.416Z,100.00
2023-05-25T22:05:45.775Z,100.00
2023-05-25T22:08:13.864Z,100.00
2023-05-25T22:10:41.848Z,100.00
2023-05-25T22:13:11.174Z,100.00
2023-05-25T22:15:39.204Z,100.00
2023-05-25T22:18:07.317Z,100.00
2023-05-25T22:20:38.558Z,100.00
2023-05-25T22:23:06.689Z,100.00
2023-05-25T22:25:34.669Z,100.00
2023-05-25T22:28:02.666Z,100.00
2023-05-25T22:30:32.021Z,100.00
2023-05-25T22:33:00.227Z,100.00
2023-05-25T22:35:28.238Z,100.00
2023-05-25T22:37:56.176Z,100.00
2023-05-25T22:40:24.200Z,100.00
2023-05-25T22:42:52.162Z,100.00
2023-05-25T22:45:20.232Z,100.00
2023-05-25T22:47:49.653Z,100.00
2023-05-25T22:50:17.836Z,100.00
2023-05-25T22:52:46.180Z,100.00
2023-05-25T22:55:14.188Z,100.00
2023-05-25T22:57:42.161Z,100.00
2023-05-25T23:00:11.142Z,100.00
2023-05-25T23:02:39.169Z,100.00
2023-05-25T23:05:09.840Z,100.00
2023-05-25T23:07:37.870Z,100.00
2023-05-25T23:10:07.137Z,100.00
2023-05-25T23:12:35.154Z,100.00
2023-05-25T23:15:03.199Z,100.00
2023-05-25T23:17:32.747Z,100.00
2023-05-25T23:20:01.987Z,100.00
2023-05-25T23:22:31.391Z,100.00
2023-05-25T23:24:59.360Z,100.00
2023-05-25T23:27:27.351Z,100.00
2023-05-25T23:29:55.364Z,100.00
2023-05-25T23:32:23.399Z,100.00
2023-05-25T23:34:51.514Z,100.00
2023-05-25T23:37:19.478Z,100.00
2023-05-25T23:39:48.875Z,100.00
2023-05-25T23:42:17.129Z,100.00
2023-05-25T23:44:45.093Z,100.00
2023-05-25T23:47:13.094Z,100.00
2023-05-25T23:49:41.058Z,100.00
2023-05-25T23:52:09.014Z,100.00
2023-05-25T23:54:37.030Z,100.00
2023-05-25T23:57:06.784Z,100.00
2023-05-25T23:59:34.771Z,100.00
